Time;durP1;ratioP1;P1;durP2;ratioP2;P2;SDS_P1;SDS_P2;PMS_P1;PMS_P2;Temp;Humidity;BMP_temperature;BMP_pressure;BME280_temperature;BME280_humidity;BME280_pressure;Samples;Min_cycle;Max_cycle;Signal;HPM_P1;HPM_P2
2022/12/11 00:02:11;;;;;;;22.10;13.00;;;-0.30;99.90;;;;;;5039146;28;20979;-66
2022/12/11 00:04:38;;;;;;;22.60;13.37;;;-0.20;99.90;;;;;;5036488;28;20492;-69
2022/12/11 00:07:05;;;;;;;19.57;12.93;;;-0.20;99.90;;;;;;5036369;28;20553;-67
2022/12/11 00:09:32;;;;;;;17.80;12.37;;;-0.20;99.90;;;;;;5035778;28;20499;-67
2022/12/11 00:11:59;;;;;;;18.60;12.97;;;-0.20;99.90;;;;;;5035808;28;20500;-67
2022/12/11 00:14:25;;;;;;;20.10;12.63;;;-0.20;99.90;;;;;;5036373;28;20595;-67
2022/12/11 00:16:54;;;;;;;19.27;13.33;;;-0.20;99.90;;;;;;5035520;28;20547;-67
2022/12/11 00:19:21;;;;;;;23.87;14.90;;;-0.10;99.90;;;;;;5035367;28;20479;-67
2022/12/11 00:21:48;;;;;;;19.87;13.03;;;-0.10;99.90;;;;;;5035241;28;20984;-67
2022/12/11 00:24:14;;;;;;;17.47;12.50;;;-0.10;99.90;;;;;;5035216;28;20546;-67
2022/12/11 00:26:41;;;;;;;18.33;12.07;;;0.00;99.90;;;;;;5034511;28;20466;-68
2022/12/11 00:29:13;;;;;;;15.73;12.40;;;0.00;99.90;;;;;;5034462;28;20530;-68
2022/12/11 00:31:40;;;;;;;18.47;12.17;;;0.00;99.90;;;;;;5034873;28;20501;-68
2022/12/11 00:34:09;;;;;;;18.67;12.93;;;0.00;99.90;;;;;;5035141;28;20562;-67
2022/12/11 00:36:36;;;;;;;19.13;12.10;;;0.00;99.90;;;;;;5035106;28;20471;-69
2022/12/11 00:39:03;;;;;;;20.50;14.00;;;-0.10;99.90;;;;;;5034600;28;20499;-68
2022/12/11 00:41:30;;;;;;;17.40;11.40;;;-0.10;99.90;;;;;;5034959;28;20858;-67
2022/12/11 00:43:57;;;;;;;19.60;12.70;;;-0.10;99.90;;;;;;5034807;28;20559;-68
2022/12/11 00:46:24;;;;;;;17.40;11.63;;;-0.10;99.90;;;;;;5034457;28;20484;-67
2022/12/11 00:48:51;;;;;;;19.90;13.00;;;0.00;99.90;;;;;;5034610;28;20570;-67
2022/12/11 00:51:19;;;;;;;24.03;13.57;;;0.00;99.90;;;;;;5035233;28;20551;-66
2022/12/11 00:53:46;;;;;;;18.73;12.17;;;0.00;99.90;;;;;;5038869;28;20547;-67
2022/12/11 00:56:16;;;;;;;19.30;12.60;;;0.00;99.90;;;;;;5038697;28;20800;-68
2022/12/11 00:58:43;;;;;;;22.77;12.87;;;-0.10;99.90;;;;;;5038511;28;20995;-68
2022/12/11 01:01:11;;;;;;;23.37;13.20;;;-0.10;99.90;;;;;;5038797;28;20534;-68
2022/12/11 01:03:38;;;;;;;21.50;13.13;;;-0.10;99.90;;;;;;5038928;28;20535;-69
2022/12/11 01:06:06;;;;;;;22.93;12.60;;;-0.10;99.90;;;;;;5038771;28;20540;-67
2022/12/11 01:08:35;;;;;;;21.30;13.57;;;-0.10;99.90;;;;;;5038639;28;20488;-68
2022/12/11 01:11:02;;;;;;;18.00;13.20;;;0.00;99.90;;;;;;5038445;28;20518;-67
2022/12/11 01:13:29;;;;;;;22.17;13.90;;;0.00;99.90;;;;;;5038413;28;20500;-68
2022/12/11 01:15:56;;;;;;;20.53;13.53;;;0.00;99.90;;;;;;5038262;28;20577;-67
2022/12/11 01:18:25;;;;;;;19.90;12.90;;;0.00;99.90;;;;;;5037972;28;20451;-68
2022/12/11 01:20:52;;;;;;;21.07;12.73;;;0.00;99.90;;;;;;5038515;28;20523;-67
2022/12/11 01:23:19;;;;;;;18.17;12.53;;;0.00;99.90;;;;;;5039906;28;20529;-67
2022/12/11 01:25:47;;;;;;;19.97;12.43;;;-0.10;99.90;;;;;;5041450;28;20459;-67
2022/12/11 01:28:14;;;;;;;21.00;13.43;;;-0.10;99.90;;;;;;5041524;28;20476;-68
2022/12/11 01:30:42;;;;;;;17.07;12.73;;;-0.10;99.90;;;;;;5041777;28;20534;-68
2022/12/11 01:33:09;;;;;;;21.67;13.13;;;-0.10;99.90;;;;;;5040895;28;20460;-68
2022/12/11 01:35:36;;;;;;;22.47;14.10;;;-0.20;99.90;;;;;;5040498;28;20559;-68
2022/12/11 01:38:03;;;;;;;21.40;13.57;;;-0.20;99.90;;;;;;5040434;28;20517;-68
2022/12/11 01:40:30;;;;;;;25.70;14.07;;;-0.10;99.90;;;;;;5039198;28;20543;-68
2022/12/11 01:42:58;;;;;;;19.13;12.60;;;-0.10;99.90;;;;;;5038986;28;20555;-68
2022/12/11 01:45:37;;;;;;;21.23;14.33;;;0.00;99.90;;;;;;5038402;28;20460;-67
2022/12/11 01:48:09;;;;;;;22.00;13.50;;;-0.10;99.90;;;;;;5038012;28;20526;-67
2022/12/11 01:50:41;;;;;;;18.80;12.60;;;-0.10;99.90;;;;;;5038378;28;20444;-67
2022/12/11 01:53:12;;;;;;;21.73;13.77;;;-0.10;99.90;;;;;;5039109;28;20839;-68
2022/12/11 01:55:41;;;;;;;22.00;14.27;;;-0.10;99.90;;;;;;5038282;28;20494;-68
2022/12/11 01:58:11;;;;;;;21.20;14.23;;;-0.10;99.90;;;;;;5037767;28;20623;-67
2022/12/11 02:00:38;;;;;;;21.40;14.10;;;-0.10;99.90;;;;;;5037691;28;20912;-68
2022/12/11 02:03:05;;;;;;;26.00;15.27;;;-0.10;99.90;;;;;;5036677;28;20558;-68
2022/12/11 02:05:32;;;;;;;22.63;14.40;;;-0.10;99.90;;;;;;5037457;28;20502;-69
2022/12/11 02:08:01;;;;;;;24.07;14.23;;;-0.20;99.90;;;;;;5037365;28;20516;-71
2022/12/11 02:10:36;;;;;;;22.23;14.07;;;-0.10;99.90;;;;;;5037386;28;20506;-68
2022/12/11 02:13:11;;;;;;;21.10;14.23;;;-0.10;99.90;;;;;;5037541;28;20444;-67
2022/12/11 02:15:44;;;;;;;20.07;12.93;;;-0.10;99.90;;;;;;5037409;28;20447;-68
2022/12/11 02:18:19;;;;;;;22.27;13.90;;;-0.10;99.90;;;;;;5036781;28;20544;-68
2022/12/11 02:20:53;;;;;;;22.87;13.43;;;-0.10;99.90;;;;;;5036670;28;20535;-67
2022/12/11 02:23:52;;;;;;;21.80;13.60;;;-0.10;99.90;;;;;;5037087;28;20532;-67
2022/12/11 02:26:34;;;;;;;21.90;14.40;;;-0.10;99.90;;;;;;5036838;28;20964;-69
2022/12/11 02:29:05;;;;;;;24.23;14.57;;;-0.10;99.90;;;;;;5037655;28;20575;-67
2022/12/11 02:31:38;;;;;;;18.80;13.50;;;-0.10;99.90;;;;;;5036692;28;20480;-68
2022/12/11 02:34:11;;;;;;;19.07;12.60;;;-0.10;99.90;;;;;;5036777;28;20840;-69
2022/12/11 02:36:41;;;;;;;18.90;12.60;;;-0.10;99.90;;;;;;5036970;28;20445;-67
2022/12/11 02:39:11;;;;;;;20.00;13.03;;;-0.10;99.90;;;;;;5036400;28;20518;-67
2022/12/11 02:41:40;;;;;;;20.93;14.20;;;-0.10;99.90;;;;;;5036482;28;20460;-69
2022/12/11 02:44:12;;;;;;;22.97;13.67;;;-0.10;99.90;;;;;;5036357;28;20463;-68
2022/12/11 02:46:40;;;;;;;21.87;13.83;;;-0.10;99.90;;;;;;5036518;28;20582;-68
2022/12/11 02:49:09;;;;;;;23.60;13.43;;;0.00;99.90;;;;;;5036392;28;20574;-68
2022/12/11 02:51:39;;;;;;;24.43;13.77;;;0.00;99.90;;;;;;5037164;28;20456;-68
2022/12/11 02:54:08;;;;;;;20.23;14.27;;;0.00;99.90;;;;;;5037439;28;20470;-68
2022/12/11 02:56:42;;;;;;;23.10;12.73;;;0.00;99.90;;;;;;5037512;28;20547;-67
2022/12/11 02:59:15;;;;;;;23.20;13.57;;;0.00;99.90;;;;;;5036417;28;20443;-67
2022/12/11 03:01:42;;;;;;;21.17;13.10;;;0.00;99.90;;;;;;5036463;28;20444;-69
2022/12/11 03:04:09;;;;;;;18.63;12.37;;;0.00;99.90;;;;;;5036376;28;20502;-68
2022/12/11 03:06:40;;;;;;;20.50;13.20;;;0.00;99.90;;;;;;5036067;28;20466;-68
2022/12/11 03:09:07;;;;;;;21.70;13.70;;;0.00;99.90;;;;;;5037100;28;20484;-69
2022/12/11 03:11:34;;;;;;;20.07;13.60;;;-0.10;99.90;;;;;;5036232;28;20460;-67
2022/12/11 03:14:02;;;;;;;24.20;14.23;;;-0.20;99.90;;;;;;5036774;28;20611;-68
2022/12/11 03:16:36;;;;;;;23.07;13.33;;;-0.20;99.90;;;;;;5035240;28;20456;-68
2022/12/11 03:19:13;;;;;;;20.07;13.10;;;-0.20;99.90;;;;;;5036486;28;20540;-68
2022/12/11 03:21:46;;;;;;;19.77;13.10;;;-0.20;99.90;;;;;;5036213;28;20459;-68
2022/12/11 03:24:18;;;;;;;22.47;13.07;;;-0.20;99.90;;;;;;5036044;28;20747;-68
2022/12/11 03:26:49;;;;;;;23.33;14.40;;;-0.20;99.90;;;;;;5036115;28;20919;-67
2022/12/11 03:29:20;;;;;;;22.33;13.60;;;-0.20;99.90;;;;;;5035602;28;20545;-68
2022/12/11 03:31:55;;;;;;;19.70;13.37;;;-0.20;99.90;;;;;;5035664;28;20448;-67
2022/12/11 03:34:27;;;;;;;25.93;14.47;;;-0.20;99.90;;;;;;5035624;28;20458;-66
2022/12/11 03:36:56;;;;;;;24.57;13.90;;;-0.20;99.90;;;;;;5035705;28;20536;-68
2022/12/11 03:39:29;;;;;;;31.00;14.50;;;-0.20;99.90;;;;;;5035712;28;20796;-68
2022/12/11 03:41:57;;;;;;;23.03;14.73;;;-0.10;99.90;;;;;;5035642;28;20444;-67
2022/12/11 03:44:26;;;;;;;21.20;13.23;;;-0.10;99.90;;;;;;5035297;28;20546;-68
2022/12/11 03:46:57;;;;;;;26.00;14.10;;;-0.10;99.90;;;;;;5035384;28;20494;-69
2022/12/11 03:49:28;;;;;;;21.73;13.17;;;-0.20;99.90;;;;;;5035183;28;20539;-68
2022/12/11 03:51:58;;;;;;;22.80;13.73;;;-0.20;99.90;;;;;;5035143;28;20444;-68
2022/12/11 03:54:25;;;;;;;22.83;14.00;;;-0.10;99.90;;;;;;5035606;28;20847;-67
2022/12/11 03:56:56;;;;;;;17.80;13.20;;;-0.20;99.90;;;;;;5035367;28;20811;-68
2022/12/11 03:59:23;;;;;;;19.90;12.73;;;-0.20;99.90;;;;;;5036200;28;20442;-67
2022/12/11 04:01:50;;;;;;;24.43;13.50;;;-0.20;99.90;;;;;;5035317;28;20538;-68
2022/12/11 04:04:18;;;;;;;20.53;13.77;;;-0.20;99.90;;;;;;5035509;28;20539;-68
2022/12/11 04:06:45;;;;;;;21.40;13.40;;;-0.20;99.90;;;;;;5035170;28;21000;-68
2022/12/11 04:09:12;;;;;;;23.50;14.43;;;-0.20;99.90;;;;;;5034925;28;20570;-68
2022/12/11 04:11:41;;;;;;;23.20;13.77;;;-0.20;99.90;;;;;;5035196;28;20546;-68
2022/12/11 04:16:59;;;;;;;24.17;14.43;;;-0.30;99.90;;;;;;5017801;28;20471;-68
2022/12/11 04:24:56;;;;;;;23.37;14.30;;;-0.50;99.90;;;;;;5034996;28;20423;-68
2022/12/11 04:30:11;;;;;;;31.37;15.10;;;-0.50;99.90;;;;;;5035308;28;20502;-67
2022/12/11 04:32:38;;;;;;;26.83;14.23;;;-0.50;99.90;;;;;;5034821;28;20603;-68
2022/12/11 04:35:07;;;;;;;27.20;15.47;;;-0.50;99.90;;;;;;5034945;28;20547;-67
2022/12/11 04:37:34;;;;;;;27.77;15.50;;;-0.50;99.90;;;;;;5035059;28;20455;-68
2022/12/11 04:40:01;;;;;;;23.83;14.70;;;-0.50;99.90;;;;;;5035433;28;20480;-68
2022/12/11 04:42:28;;;;;;;21.47;14.20;;;-0.50;99.90;;;;;;5035488;28;20562;-68
2022/12/11 04:44:55;;;;;;;20.50;13.90;;;-0.50;99.90;;;;;;5034819;28;20542;-66
2022/12/11 04:47:22;;;;;;;26.23;14.53;;;-0.50;99.90;;;;;;5035423;28;20567;-68
2022/12/11 04:49:49;;;;;;;23.37;14.47;;;-0.40;99.90;;;;;;5035278;28;20583;-68
2022/12/11 04:52:17;;;;;;;23.13;14.80;;;-0.40;99.90;;;;;;5035006;28;20543;-69
2022/12/11 04:54:44;;;;;;;34.23;14.30;;;-0.40;99.90;;;;;;5035059;28;20470;-67
2022/12/11 04:57:11;;;;;;;28.00;15.80;;;-0.40;99.90;;;;;;5035004;28;20531;-68
2022/12/11 04:59:38;;;;;;;25.10;14.47;;;-0.40;99.90;;;;;;5034827;28;20483;-68
2022/12/11 05:02:05;;;;;;;25.43;14.40;;;-0.40;99.90;;;;;;5034883;28;20547;-68
2022/12/11 05:04:32;;;;;;;23.30;12.80;;;-0.40;99.90;;;;;;5034752;28;20543;-67
2022/12/11 05:06:59;;;;;;;20.87;14.10;;;-0.40;99.90;;;;;;5034345;28;20550;-68
2022/12/11 05:09:28;;;;;;;23.23;14.53;;;-0.40;99.90;;;;;;5034929;28;20579;-68
2022/12/11 05:11:55;;;;;;;22.30;14.70;;;-0.40;99.90;;;;;;5034236;28;20590;-68
2022/12/11 05:14:22;;;;;;;21.50;14.50;;;-0.40;99.90;;;;;;5034370;28;20535;-67
2022/12/11 05:16:49;;;;;;;24.43;14.87;;;-0.40;99.90;;;;;;5034856;28;20495;-67
2022/12/11 05:19:16;;;;;;;21.87;15.20;;;-0.40;99.90;;;;;;5034555;28;20478;-68
2022/12/11 05:21:43;;;;;;;21.70;14.77;;;-0.40;99.90;;;;;;5034237;28;20947;-68
2022/12/11 05:24:09;;;;;;;24.90;14.83;;;-0.40;99.90;;;;;;5034201;28;20554;-68
2022/12/11 05:26:38;;;;;;;26.10;14.17;;;-0.40;99.90;;;;;;5034467;28;20498;-68
2022/12/11 05:29:04;;;;;;;26.33;14.73;;;-0.40;99.90;;;;;;5034246;28;20566;-68
2022/12/11 05:31:31;;;;;;;27.30;14.53;;;-0.40;99.90;;;;;;5034233;28;20558;-68
2022/12/11 05:33:58;;;;;;;29.10;16.37;;;-0.40;99.90;;;;;;5034255;28;20555;-69
2022/12/11 05:36:27;;;;;;;25.83;16.17;;;-0.40;99.90;;;;;;5034049;28;20997;-66
2022/12/11 05:38:54;;;;;;;28.47;17.53;;;-0.40;99.90;;;;;;5035175;28;20456;-68
2022/12/11 05:41:23;;;;;;;26.53;15.30;;;-0.40;99.90;;;;;;5038150;28;20460;-66
2022/12/11 05:43:52;;;;;;;30.00;17.53;;;-0.30;99.90;;;;;;5037861;28;20467;-67
2022/12/11 05:46:22;;;;;;;28.17;16.00;;;-0.30;99.90;;;;;;5038452;28;20570;-67
2022/12/11 05:48:51;;;;;;;29.47;17.40;;;-0.30;99.90;;;;;;5040149;28;20542;-67
2022/12/11 05:51:19;;;;;;;28.00;16.20;;;-0.30;99.90;;;;;;5039291;28;20562;-67
2022/12/11 05:53:48;;;;;;;30.03;17.60;;;-0.30;99.90;;;;;;5037625;28;20528;-68
2022/12/11 05:56:17;;;;;;;25.30;16.63;;;-0.30;99.90;;;;;;5037123;28;20460;-67
2022/12/11 05:58:45;;;;;;;30.90;14.27;;;-0.30;99.90;;;;;;5037316;28;20456;-68
2022/12/11 06:01:16;;;;;;;26.50;16.80;;;-0.30;99.90;;;;;;5037292;28;21042;-68
2022/12/11 06:03:43;;;;;;;23.50;15.43;;;-0.30;99.90;;;;;;5037944;28;20456;-68
2022/12/11 06:06:10;;;;;;;26.43;13.03;;;-0.30;99.90;;;;;;5038798;28;20464;-67
2022/12/11 06:08:37;;;;;;;27.17;15.53;;;-0.30;99.90;;;;;;5037994;28;20491;-68
2022/12/11 06:11:05;;;;;;;21.87;13.47;;;-0.30;99.90;;;;;;5037337;28;20460;-68
2022/12/11 06:13:32;;;;;;;24.47;13.53;;;-0.30;99.90;;;;;;5036950;28;20521;-68
2022/12/11 06:16:01;;;;;;;25.20;14.90;;;-0.30;99.90;;;;;;5037550;28;20452;-68
2022/12/11 06:18:30;;;;;;;22.20;12.93;;;-0.30;99.90;;;;;;5037149;28;20456;-68
2022/12/11 06:20:57;;;;;;;22.30;13.30;;;-0.30;99.90;;;;;;5036770;28;20483;-68
2022/12/11 06:23:24;;;;;;;20.20;13.00;;;-0.30;99.90;;;;;;5037107;28;20954;-67
2022/12/11 06:25:52;;;;;;;21.57;13.80;;;-0.30;99.90;;;;;;5038352;28;20452;-67
2022/12/11 06:28:19;;;;;;;25.33;13.60;;;-0.30;99.90;;;;;;5038156;28;20456;-68
2022/12/11 06:30:46;;;;;;;19.00;13.00;;;-0.40;99.90;;;;;;5037635;28;20484;-67
2022/12/11 06:33:13;;;;;;;20.03;13.10;;;-0.40;99.90;;;;;;5038041;28;20984;-68
2022/12/11 06:35:41;;;;;;;16.90;12.13;;;-0.40;99.90;;;;;;5037921;28;20460;-67
2022/12/11 06:38:08;;;;;;;23.77;14.30;;;-0.40;99.90;;;;;;5037478;28;20455;-67
2022/12/11 06:40:35;;;;;;;24.03;12.83;;;-0.40;99.90;;;;;;5037355;28;20479;-68
2022/12/11 06:43:02;;;;;;;19.93;13.07;;;-0.50;99.90;;;;;;5037117;28;20466;-68
2022/12/11 06:45:29;;;;;;;17.07;10.80;;;-0.60;99.90;;;;;;5036407;28;20495;-67
2022/12/11 06:47:56;;;;;;;14.87;11.03;;;-0.60;99.90;;;;;;5036758;28;20444;-67
2022/12/11 06:50:23;;;;;;;17.23;11.20;;;-0.60;99.90;;;;;;5036371;28;20582;-68
2022/12/11 06:52:51;;;;;;;19.97;11.73;;;-0.70;99.90;;;;;;5036982;28;20755;-67
2022/12/11 06:55:18;;;;;;;18.80;11.10;;;-0.70;99.90;;;;;;5036953;28;20464;-68
2022/12/11 06:57:44;;;;;;;19.53;13.20;;;-0.80;99.90;;;;;;5037345;28;20460;-69
2022/12/11 07:00:12;;;;;;;17.77;10.90;;;-0.80;99.90;;;;;;5037075;28;20550;-67
2022/12/11 07:02:39;;;;;;;19.07;10.10;;;-0.80;99.90;;;;;;5037243;28;20488;-68
2022/12/11 07:05:07;;;;;;;20.83;11.50;;;-0.80;99.90;;;;;;5037461;28;20846;-67
2022/12/11 07:07:34;;;;;;;15.73;10.40;;;-0.80;99.90;;;;;;5036536;28;20525;-68
2022/12/11 07:10:02;;;;;;;15.73;10.30;;;-0.80;99.90;;;;;;5036720;28;20476;-68
2022/12/11 07:12:29;;;;;;;20.57;11.53;;;-0.80;99.90;;;;;;5036698;28;20551;-67
2022/12/11 07:14:56;;;;;;;16.03;10.53;;;-0.80;99.90;;;;;;5036440;28;20460;-68
2022/12/11 07:17:22;;;;;;;15.87;11.00;;;-0.80;99.90;;;;;;5036555;28;20550;-67
2022/12/11 07:19:49;;;;;;;17.87;11.37;;;-0.90;99.90;;;;;;5036478;28;20916;-68
2022/12/11 07:22:16;;;;;;;15.90;10.40;;;-0.90;99.90;;;;;;5036726;28;20547;-66
2022/12/11 07:24:43;;;;;;;15.23;10.80;;;-0.90;99.90;;;;;;5037387;28;20466;-68
2022/12/11 07:27:11;;;;;;;14.20;10.70;;;-0.90;99.90;;;;;;5037344;28;20780;-66
2022/12/11 07:29:38;;;;;;;15.73;10.20;;;-0.90;99.90;;;;;;5037983;28;20559;-67
2022/12/11 07:32:05;;;;;;;13.60;9.80;;;-1.00;99.90;;;;;;5039996;28;20559;-68
2022/12/11 07:34:32;;;;;;;13.03;9.43;;;-1.00;99.90;;;;;;5038320;28;20487;-67
2022/12/11 07:36:59;;;;;;;16.93;10.93;;;-1.00;99.90;;;;;;5037495;28;20551;-67
2022/12/11 07:39:26;;;;;;;14.83;10.23;;;-1.00;99.90;;;;;;5036858;28;20452;-68
2022/12/11 07:41:53;;;;;;;15.27;9.20;;;-1.00;99.90;;;;;;5036493;28;20528;-67
2022/12/11 07:44:21;;;;;;;16.97;10.73;;;-1.00;99.90;;;;;;5036682;28;20464;-68
2022/12/11 07:46:48;;;;;;;17.17;10.30;;;-0.90;99.90;;;;;;5035786;28;20574;-66
2022/12/11 07:49:15;;;;;;;13.50;9.17;;;-0.90;99.90;;;;;;5036285;28;20464;-67
2022/12/11 07:51:42;;;;;;;14.07;9.47;;;-0.90;99.90;;;;;;5036234;28;20470;-68
2022/12/11 07:54:15;;;;;;;15.57;10.33;;;-0.90;99.90;;;;;;5036538;28;20542;-68
2022/12/11 07:56:42;;;;;;;14.87;10.30;;;-1.00;99.90;;;;;;5035641;28;20452;-67
2022/12/11 07:59:09;;;;;;;18.33;10.87;;;-1.00;99.90;;;;;;5036025;28;20539;-66
2022/12/11 08:01:38;;;;;;;15.40;10.13;;;-1.10;99.90;;;;;;5035469;28;20466;-68
2022/12/11 08:04:08;;;;;;;14.27;9.43;;;-1.10;99.90;;;;;;5035717;28;20491;-67
2022/12/11 08:06:37;;;;;;;12.90;9.63;;;-1.10;99.90;;;;;;5035623;28;20460;-67
2022/12/11 08:09:06;;;;;;;17.87;10.40;;;-1.10;99.90;;;;;;5035899;28;20546;-67
2022/12/11 08:11:33;;;;;;;17.07;10.30;;;-1.10;99.90;;;;;;5035924;28;20578;-68
2022/12/11 08:14:01;;;;;;;15.90;10.50;;;-1.10;99.90;;;;;;5035798;28;20555;-67
2022/12/11 08:16:28;;;;;;;16.63;10.73;;;-1.10;99.90;;;;;;5035697;28;20499;-68
2022/12/11 08:18:57;;;;;;;16.83;10.20;;;-1.10;99.90;;;;;;5035580;28;20547;-67
2022/12/11 08:21:26;;;;;;;14.17;9.60;;;-1.00;99.90;;;;;;5035547;28;20462;-67
2022/12/11 08:23:54;;;;;;;17.13;9.67;;;-1.00;99.90;;;;;;5035740;28;20563;-68
2022/12/11 08:26:25;;;;;;;13.40;9.33;;;-1.00;99.90;;;;;;5035665;28;20543;-69
2022/12/11 08:28:52;;;;;;;14.13;9.60;;;-1.00;99.90;;;;;;5035900;28;20476;-68
2022/12/11 08:31:20;;;;;;;15.07;9.90;;;-1.00;99.90;;;;;;5036669;28;20483;-68
2022/12/11 08:33:48;;;;;;;16.13;11.03;;;-1.00;99.90;;;;;;5035878;28;20498;-67
2022/12/11 08:36:18;;;;;;;15.30;10.10;;;-0.90;99.90;;;;;;5035823;28;20466;-68
2022/12/11 08:38:45;;;;;;;15.63;9.67;;;-0.90;99.90;;;;;;5035360;28;20531;-67
2022/12/11 08:41:13;;;;;;;18.80;10.20;;;-0.90;99.90;;;;;;5037261;28;20522;-67
2022/12/11 08:43:40;;;;;;;19.50;11.63;;;-0.80;99.90;;;;;;5039995;28;20527;-68
2022/12/11 08:46:08;;;;;;;14.30;10.37;;;-0.80;99.90;;;;;;5040059;28;20554;-68
2022/12/11 08:48:35;;;;;;;16.60;9.70;;;-0.70;99.90;;;;;;5040231;28;20531;-68
2022/12/11 08:51:04;;;;;;;19.37;11.73;;;-0.70;99.90;;;;;;5036051;28;20482;-69
2022/12/11 08:53:33;;;;;;;13.40;10.43;;;-0.70;99.90;;;;;;5035566;28;20546;-68
2022/12/11 08:56:04;;;;;;;16.73;11.50;;;-0.60;99.90;;;;;;5035887;28;20555;-66
2022/12/11 08:58:30;;;;;;;13.23;9.03;;;-0.70;99.90;;;;;;5035726;28;20574;-67
2022/12/11 09:00:57;;;;;;;15.27;9.73;;;-0.60;99.90;;;;;;5035725;28;20904;-67
2022/12/11 09:03:24;;;;;;;16.73;10.60;;;-0.70;99.90;;;;;;5035021;28;20487;-68
2022/12/11 09:05:51;;;;;;;18.20;11.30;;;-0.70;99.90;;;;;;5035278;28;20547;-66
2022/12/11 09:08:18;;;;;;;15.33;10.17;;;-0.70;99.90;;;;;;5035449;28;20829;-68
2022/12/11 09:10:46;;;;;;;20.43;12.87;;;-0.70;99.90;;;;;;5035324;28;20864;-68
2022/12/11 09:13:13;;;;;;;18.97;13.03;;;-0.80;99.90;;;;;;5035629;28;20550;-68
2022/12/11 09:15:41;;;;;;;15.53;9.70;;;-0.90;99.90;;;;;;5039230;28;20466;-68
2022/12/11 09:18:07;;;;;;;16.80;10.30;;;-0.90;99.90;;;;;;5039230;28;20460;-68
2022/12/11 09:20:34;;;;;;;17.10;11.27;;;-0.90;99.90;;;;;;5039379;28;20493;-68
2022/12/11 09:23:02;;;;;;;16.70;10.20;;;-1.00;99.90;;;;;;5039150;28;20554;-66
2022/12/11 09:25:28;;;;;;;17.83;10.73;;;-1.00;99.90;;;;;;5039343;28;20798;-67
2022/12/11 09:27:57;;;;;;;17.00;10.60;;;-0.90;99.90;;;;;;5038934;28;20455;-67
2022/12/11 09:30:24;;;;;;;15.07;10.60;;;-0.80;99.90;;;;;;5037939;28;20511;-67
2022/12/11 09:32:51;;;;;;;20.30;10.53;;;-0.70;99.90;;;;;;5043354;28;20463;-69
2022/12/11 09:35:18;;;;;;;23.63;10.17;;;-0.60;99.90;;;;;;5043998;28;20483;-70
2022/12/11 09:37:45;;;;;;;14.93;10.97;;;-0.60;99.90;;;;;;5040482;28;20456;-66
2022/12/11 09:40:13;;;;;;;13.70;10.63;;;-0.50;99.90;;;;;;5039413;28;20458;-67
2022/12/11 09:42:50;;;;;;;14.13;10.50;;;-0.40;99.90;;;;;;5038138;28;20548;-67
2022/12/11 09:45:19;;;;;;;15.83;9.67;;;-0.40;99.90;;;;;;5038191;28;20479;-67
2022/12/11 09:47:50;;;;;;;12.50;9.47;;;-0.40;99.90;;;;;;5038824;28;20519;-67
2022/12/11 09:50:22;;;;;;;17.37;10.43;;;-0.30;99.90;;;;;;5041464;28;20488;-67
2022/12/11 09:53:00;;;;;;;13.97;9.40;;;-0.30;99.90;;;;;;5043859;28;20440;-67
2022/12/11 09:55:34;;;;;;;14.37;8.83;;;-0.30;99.90;;;;;;5043179;28;20960;-66
2022/12/11 09:58:08;;;;;;;16.73;9.90;;;-0.30;99.90;;;;;;5042443;28;20511;-69
2022/12/11 10:00:41;;;;;;;14.53;11.37;;;-0.40;99.90;;;;;;5045565;28;20523;-69
2022/12/11 10:03:37;;;;;;;14.07;10.00;;;-0.40;99.90;;;;;;5045329;28;20518;-68
2022/12/11 10:06:12;;;;;;;13.33;9.30;;;-0.40;99.90;;;;;;5045497;28;20842;-69
2022/12/11 10:08:44;;;;;;;17.77;9.93;;;-0.40;99.90;;;;;;5045590;28;20447;-69
2022/12/11 10:11:34;;;;;;;15.67;10.03;;;-0.50;99.90;;;;;;5045202;28;20517;-68
2022/12/11 10:14:09;;;;;;;16.97;9.73;;;-0.40;99.90;;;;;;5044403;28;20765;-69
2022/12/11 10:16:43;;;;;;;13.90;9.17;;;-0.50;99.90;;;;;;5044371;28;20526;-68
2022/12/11 10:19:15;;;;;;;12.13;8.80;;;-0.50;99.90;;;;;;5045546;28;20533;-70
2022/12/11 10:21:43;;;;;;;14.87;9.43;;;-0.50;99.90;;;;;;5045934;28;20447;-68
2022/12/11 10:24:16;;;;;;;21.67;18.60;;;-0.40;99.90;;;;;;5044497;28;20518;-69
2022/12/11 10:26:43;;;;;;;17.50;12.77;;;-0.40;99.90;;;;;;5045220;28;20847;-69
2022/12/11 10:29:14;;;;;;;15.00;10.70;;;-0.40;99.90;;;;;;5045415;28;20484;-69
2022/12/11 10:31:49;;;;;;;17.50;10.57;;;-0.40;99.90;;;;;;5044269;28;20495;-69
2022/12/11 10:34:26;;;;;;;21.10;11.47;;;-0.40;99.90;;;;;;5043423;28;20527;-69
2022/12/11 10:36:54;;;;;;;15.20;10.40;;;-0.40;99.90;;;;;;5044251;28;20542;-68
2022/12/11 10:39:22;;;;;;;16.70;10.27;;;-0.50;99.90;;;;;;5044701;28;20467;-68
2022/12/11 10:41:50;;;;;;;18.60;12.23;;;-0.50;99.90;;;;;;5044697;28;20453;-68
2022/12/11 10:44:19;;;;;;;16.43;10.80;;;-0.50;99.90;;;;;;5045775;28;20520;-68
2022/12/11 10:46:49;;;;;;;17.27;10.13;;;-0.50;99.90;;;;;;5043647;28;20556;-69
2022/12/11 10:49:23;;;;;;;13.40;9.10;;;-0.50;99.90;;;;;;5044349;28;20512;-69
2022/12/11 10:51:54;;;;;;;15.50;10.27;;;-0.50;99.90;;;;;;5044340;28;20511;-68
2022/12/11 10:54:31;;;;;;;16.00;9.80;;;-0.60;99.90;;;;;;5045063;28;20523;-69
2022/12/11 10:57:00;;;;;;;17.40;10.47;;;-0.60;99.90;;;;;;5043729;28;20547;-68
2022/12/11 10:59:34;;;;;;;25.73;12.53;;;-0.60;99.90;;;;;;5043664;28;20483;-68
2022/12/11 11:02:04;;;;;;;17.07;10.70;;;-0.60;99.90;;;;;;5043393;28;20467;-69
2022/12/11 11:04:35;;;;;;;16.03;10.53;;;-0.60;99.90;;;;;;5043467;28;20528;-69
2022/12/11 11:07:10;;;;;;;15.87;10.50;;;-0.50;99.90;;;;;;5044675;28;20527;-68
2022/12/11 11:09:38;;;;;;;19.07;11.23;;;-0.50;99.90;;;;;;5044235;28;20439;-68
2022/12/11 11:12:17;;;;;;;17.00;11.27;;;-0.50;99.90;;;;;;5044098;28;20543;-68
2022/12/11 11:14:44;;;;;;;14.23;10.40;;;-0.40;99.90;;;;;;5042840;28;20920;-68
2022/12/11 11:17:15;;;;;;;16.57;11.50;;;-0.30;99.90;;;;;;5042774;28;20482;-69
2022/12/11 11:19:47;;;;;;;16.40;10.70;;;-0.30;99.90;;;;;;5042822;28;20440;-69
2022/12/11 11:22:16;;;;;;;15.70;9.70;;;-0.30;99.90;;;;;;5043126;28;20909;-69
2022/12/11 11:24:45;;;;;;;16.10;10.53;;;-0.20;99.90;;;;;;5043980;28;20775;-69
2022/12/11 11:27:29;;;;;;;15.57;10.27;;;-0.20;99.90;;;;;;5043765;28;20547;-69
2022/12/11 11:29:58;;;;;;;18.07;10.23;;;-0.20;99.90;;;;;;5043750;28;20839;-70
2022/12/11 11:32:31;;;;;;;16.23;10.60;;;-0.20;99.90;;;;;;5043498;28;20465;-70
2022/12/11 11:35:14;;;;;;;18.40;11.63;;;-0.20;99.90;;;;;;5044015;28;20531;-70
2022/12/11 11:37:45;;;;;;;17.00;11.00;;;-0.30;99.90;;;;;;5043481;28;20509;-70
2022/12/11 11:40:16;;;;;;;15.20;10.30;;;-0.30;99.90;;;;;;5043849;28;20491;-69
2022/12/11 11:42:49;;;;;;;17.67;10.70;;;-0.30;99.90;;;;;;5043020;28;20472;-69
2022/12/11 11:45:22;;;;;;;17.20;10.00;;;-0.30;99.90;;;;;;5043828;28;20512;-68
2022/12/11 11:47:58;;;;;;;17.30;10.30;;;-0.30;99.90;;;;;;5043336;28;20794;-69
2022/12/11 11:50:29;;;;;;;14.80;9.70;;;-0.20;99.90;;;;;;5043736;28;20440;-70
2022/12/11 11:53:04;;;;;;;16.13;11.30;;;-0.10;99.90;;;;;;5044266;28;20519;-70
2022/12/11 11:55:41;;;;;;;19.17;11.10;;;-0.10;99.90;;;;;;5042879;28;20832;-69
2022/12/11 11:58:14;;;;;;;17.90;11.77;;;-0.10;99.90;;;;;;5031571;28;20457;-69
2022/12/11 12:00:41;;;;;;;18.77;10.67;;;-0.10;99.90;;;;;;5023126;28;20433;-69
2022/12/11 12:03:13;;;;;;;19.30;11.17;;;-0.10;99.90;;;;;;5022142;28;20499;-69
2022/12/11 12:06:01;;;;;;;14.93;9.60;;;-0.10;99.90;;;;;;5026841;28;20532;-69
2022/12/11 12:08:44;;;;;;;15.30;9.63;;;-0.10;99.90;;;;;;5025631;28;20448;-67
2022/12/11 12:11:18;;;;;;;15.87;10.97;;;0.00;99.90;;;;;;5018337;28;20469;-67
2022/12/11 12:13:53;;;;;;;14.43;9.97;;;-0.10;99.90;;;;;;5018733;28;20487;-68
2022/12/11 12:16:33;;;;;;;14.83;9.83;;;-0.10;99.90;;;;;;5018485;28;20468;-68
2022/12/11 12:19:12;;;;;;;15.50;10.83;;;-0.10;99.90;;;;;;5016287;28;20519;-68
2022/12/11 12:21:43;;;;;;;17.53;10.73;;;-0.10;99.90;;;;;;5015924;28;20437;-68
2022/12/11 12:24:20;;;;;;;19.10;12.33;;;0.00;99.90;;;;;;5016245;28;20453;-68
2022/12/11 12:26:55;;;;;;;19.43;11.80;;;0.10;99.90;;;;;;5016077;28;20445;-68
2022/12/11 12:29:43;;;;;;;15.40;10.60;;;0.10;99.90;;;;;;5016005;28;20531;-69
2022/12/11 12:32:20;;;;;;;16.43;11.37;;;0.20;99.90;;;;;;5015559;28;20469;-67
2022/12/11 12:35:01;;;;;;;15.00;10.73;;;0.30;99.90;;;;;;5017728;28;20441;-69
2022/12/11 12:37:47;;;;;;;21.30;11.33;;;0.30;99.90;;;;;;5028090;28;20837;-66
2022/12/11 12:40:20;;;;;;;16.27;9.80;;;0.40;99.90;;;;;;5034897;28;20817;-67
2022/12/11 12:42:56;;;;;;;15.13;10.20;;;0.40;99.90;;;;;;5016712;28;20537;-67
2022/12/11 12:45:29;;;;;;;17.90;11.80;;;0.40;99.90;;;;;;5017443;28;20445;-67
2022/12/11 12:47:56;;;;;;;24.93;15.30;;;0.40;99.90;;;;;;5018840;28;20829;-68
2022/12/11 12:50:30;;;;;;;13.87;10.90;;;0.40;99.90;;;;;;5021436;28;20452;-67
2022/12/11 12:52:58;;;;;;;16.63;12.20;;;0.60;99.90;;;;;;5022858;28;20495;-68